Time;durP1;ratioP1;P1;durP2;ratioP2;P2;SDS_P1;SDS_P2;PMS_P1;PMS_P2;Temp;Humidity;BMP_temperature;BMP_pressure;BME280_temperature;BME280_humidity;BME280_pressure;Samples;Min_cycle;Max_cycle;Signal;HPM_P1;HPM_P2
2022/05/16 00:01:55;;;;;;;29.00;10.40;;;;;;;;;;5022989;28;20029;-77
2022/05/16 00:04:21;;;;;;;24.30;11.40;;;;;;;;;;5020966;28;20044;-77
2022/05/16 00:06:47;;;;;;;28.17;11.65;;;;;;;;;;5022658;28;20029;-77
2022/05/16 00:09:13;;;;;;;29.42;11.25;;;;;;;;;;5026029;28;20083;-78
2022/05/16 00:11:39;;;;;;;29.17;12.35;;;;;;;;;;5027321;28;20037;-77
2022/05/16 00:14:05;;;;;;;29.00;11.80;;;;;;;;;;5027560;28;20034;-77
2022/05/16 00:16:33;;;;;;;38.85;11.63;;;;;;;;;;5025567;28;20041;-77
2022/05/16 00:18:59;;;;;;;30.05;11.40;;;;;;;;;;5031144;28;20087;-77
2022/05/16 00:21:25;;;;;;;29.70;11.00;;;;;;;;;;5028336;28;20491;-77
2022/05/16 00:23:51;;;;;;;25.30;11.60;;;;;;;;;;5030903;28;20029;-77
2022/05/16 00:26:18;;;;;;;28.13;11.63;;;;;;;;;;5027090;28;20080;-77
2022/05/16 00:28:44;;;;;;;31.95;11.32;;;;;;;;;;5028035;28;20073;-77
2022/05/16 00:31:10;;;;;;;26.38;10.98;;;;;;;;;;5028304;28;20048;-77
2022/05/16 00:33:36;;;;;;;33.38;11.20;;;;;;;;;;5029757;28;20029;-77
2022/05/16 00:36:02;;;;;;;25.45;11.07;;;;;;;;;;5028211;28;20448;-77
2022/05/16 00:38:29;;;;;;;35.00;12.02;;;;;;;;;;5029523;28;20112;-77
2022/05/16 00:40:56;;;;;;;28.60;11.18;;;;;;;;;;5029443;28;20036;-77
2022/05/16 00:43:43;;;;;;;28.40;10.73;;;;;;;;;;5028120;28;20033;-77
2022/05/16 00:46:09;;;;;;;37.58;10.57;;;;;;;;;;5028406;28;20527;-77
2022/05/16 00:48:35;;;;;;;25.20;10.50;;;;;;;;;;5028373;28;20029;-77
2022/05/16 00:51:02;;;;;;;27.55;10.75;;;;;;;;;;5028430;28;20041;-77
2022/05/16 00:53:29;;;;;;;28.55;10.95;;;;;;;;;;5030428;28;20492;-77
2022/05/16 00:55:55;;;;;;;22.83;11.35;;;;;;;;;;5028946;28;20034;-77
2022/05/16 00:58:21;;;;;;;26.90;10.75;;;;;;;;;;5028155;28;20033;-77
2022/05/16 01:00:48;;;;;;;26.30;10.73;;;;;;;;;;5028020;28;20029;-77
2022/05/16 01:06:15;;;;;;;23.08;11.02;;;;;;;;;;4962705;28;20403;-77
2022/05/16 01:08:43;;;;;;;33.05;12.25;;;;;;;;;;4970012;28;20042;-77
2022/05/16 01:11:13;;;;;;;35.17;11.45;;;;;;;;;;4970691;28;20026;-77
2022/05/16 01:13:39;;;;;;;32.05;11.75;;;;;;;;;;4969978;28;20041;-77
2022/05/16 01:16:06;;;;;;;28.10;12.07;;;;;;;;;;4973620;28;20450;-77
2022/05/16 01:18:32;;;;;;;29.60;12.50;;;;;;;;;;4973807;28;20154;-77
2022/05/16 01:21:19;;;;;;;21.27;10.93;;;;;;;;;;4973722;28;20031;-77
2022/05/16 01:23:51;;;;;;;28.40;11.10;;;;;;;;;;4973416;28;20034;-77
2022/05/16 01:26:19;;;;;;;28.35;11.27;;;;;;;;;;4974322;28;20054;-77
2022/05/16 01:28:45;;;;;;;26.55;11.50;;;;;;;;;;4973523;28;20145;-77
2022/05/16 01:31:11;;;;;;;25.08;11.57;;;;;;;;;;4973725;28;20038;-77
2022/05/16 01:33:37;;;;;;;26.38;11.05;;;;;;;;;;4973415;28;20037;-77
2022/05/16 01:36:04;;;;;;;26.35;12.30;;;;;;;;;;4973629;28;20050;-77
2022/05/16 01:38:31;;;;;;;28.10;12.82;;;;;;;;;;4973418;28;20023;-77
2022/05/16 01:41:02;;;;;;;29.48;11.98;;;;;;;;;;4979823;28;20050;-77
2022/05/16 01:43:33;;;;;;;32.58;13.68;;;;;;;;;;5029380;28;20029;-78
2022/05/16 01:45:59;;;;;;;21.10;11.05;;;;;;;;;;5033175;28;20032;-77
2022/05/16 01:48:29;;;;;;;32.67;11.80;;;;;;;;;;5031782;28;20392;-77
2022/05/16 01:50:58;;;;;;;32.78;12.13;;;;;;;;;;5031222;28;20148;-77
2022/05/16 01:53:24;;;;;;;26.58;11.68;;;;;;;;;;5034380;28;20033;-77
2022/05/16 01:55:50;;;;;;;35.88;12.73;;;;;;;;;;5031860;28;20049;-77
2022/05/16 01:58:16;;;;;;;30.13;11.68;;;;;;;;;;5031224;28;20104;-77
2022/05/16 02:00:42;;;;;;;33.45;12.45;;;;;;;;;;5032699;28;20045;-77
2022/05/16 02:03:10;;;;;;;27.38;12.23;;;;;;;;;;5031252;28;20040;-77
2022/05/16 02:05:36;;;;;;;30.80;11.82;;;;;;;;;;5033137;28;20068;-77
2022/05/16 02:08:03;;;;;;;24.48;11.60;;;;;;;;;;5032157;28;20044;-77
2022/05/16 02:10:29;;;;;;;31.50;12.10;;;;;;;;;;5030684;28;20061;-77
2022/05/16 02:12:59;;;;;;;28.63;12.23;;;;;;;;;;5030933;28;20511;-77
2022/05/16 02:15:26;;;;;;;34.15;13.20;;;;;;;;;;5030725;28;20503;-77
2022/05/16 02:17:52;;;;;;;25.30;11.88;;;;;;;;;;5030915;28;20025;-77
2022/05/16 02:20:18;;;;;;;35.45;13.00;;;;;;;;;;5034234;28;20037;-77
2022/05/16 02:25:32;;;;;;;33.22;12.18;;;;;;;;;;5030572;28;20044;-77
2022/05/16 02:27:58;;;;;;;27.33;13.07;;;;;;;;;;5030406;28;20082;-77
2022/05/16 02:30:24;;;;;;;28.20;12.43;;;;;;;;;;5030937;28;20032;-77
2022/05/16 02:32:50;;;;;;;26.80;13.18;;;;;;;;;;5013470;28;20029;-77
2022/05/16 02:35:16;;;;;;;30.48;12.52;;;;;;;;;;5033948;28;20175;-77
2022/05/16 02:37:42;;;;;;;33.15;13.85;;;;;;;;;;5030079;28;20084;-77
2022/05/16 02:40:09;;;;;;;30.80;13.23;;;;;;;;;;5030195;28;20048;-77
2022/05/16 02:42:35;;;;;;;31.33;13.68;;;;;;;;;;5030623;28;20025;-78
2022/05/16 02:45:01;;;;;;;28.55;13.43;;;;;;;;;;5030651;28;20068;-77
2022/05/16 02:47:28;;;;;;;31.02;13.02;;;;;;;;;;5032725;28;20022;-77
2022/05/16 02:49:54;;;;;;;26.85;13.25;;;;;;;;;;5032825;28;20030;-77
2022/05/16 02:52:20;;;;;;;28.70;12.43;;;;;;;;;;5029928;28;20026;-77
2022/05/16 02:54:46;;;;;;;27.58;13.27;;;;;;;;;;5012350;28;20048;-77
2022/05/16 02:57:13;;;;;;;30.40;12.82;;;;;;;;;;5030261;28;20041;-78
2022/05/16 02:59:39;;;;;;;30.80;14.02;;;;;;;;;;5031726;28;20109;-77
2022/05/16 03:02:07;;;;;;;30.98;14.18;;;;;;;;;;5031919;28;20056;-77
2022/05/16 03:04:33;;;;;;;36.33;16.35;;;;;;;;;;5029872;28;20030;-77
2022/05/16 03:07:00;;;;;;;33.60;15.27;;;;;;;;;;5029797;28;20036;-77
2022/05/16 03:09:27;;;;;;;33.25;14.68;;;;;;;;;;5029772;28;20029;-77
2022/05/16 03:11:53;;;;;;;37.95;15.30;;;;;;;;;;5030116;28;20030;-77
2022/05/16 03:14:20;;;;;;;33.97;15.57;;;;;;;;;;5033443;28;20052;-77
2022/05/16 03:16:46;;;;;;;32.88;16.27;;;;;;;;;;5029693;28;20029;-77
2022/05/16 03:19:12;;;;;;;38.80;14.65;;;;;;;;;;5029803;28;20029;-75
2022/05/16 03:21:38;;;;;;;32.90;15.60;;;;;;;;;;5029758;28;20059;-77
2022/05/16 03:24:05;;;;;;;40.25;15.63;;;;;;;;;;5029723;28;20041;-78
2022/05/16 03:26:31;;;;;;;37.67;14.57;;;;;;;;;;5031723;28;20028;-77
2022/05/16 03:28:57;;;;;;;32.00;14.00;;;;;;;;;;5030715;28;20064;-77
2022/05/16 03:31:23;;;;;;;30.27;14.35;;;;;;;;;;5029237;28;20405;-77
2022/05/16 03:33:50;;;;;;;32.60;13.88;;;;;;;;;;5028881;28;20043;-78
2022/05/16 03:36:16;;;;;;;31.02;14.65;;;;;;;;;;5028730;28;20034;-77
2022/05/16 03:41:27;;;;;;;31.55;13.98;;;;;;;;;;5029500;28;20044;-77
2022/05/16 03:43:53;;;;;;;36.95;14.48;;;;;;;;;;5031492;28;20025;-77
2022/05/16 03:46:19;;;;;;;29.52;13.65;;;;;;;;;;5029457;28;20037;-77
2022/05/16 03:48:45;;;;;;;31.38;14.02;;;;;;;;;;5028732;28;20025;-77
2022/05/16 03:51:12;;;;;;;26.83;13.68;;;;;;;;;;5029138;28;20037;-77
2022/05/16 03:53:48;;;;;;;33.55;13.63;;;;;;;;;;5030543;28;20039;-77
2022/05/16 03:56:18;;;;;;;33.53;14.27;;;;;;;;;;5032028;28;20044;-76
2022/05/16 03:58:44;;;;;;;31.67;14.88;;;;;;;;;;5028885;28;20068;-77
2022/05/16 04:01:11;;;;;;;33.33;14.05;;;;;;;;;;5029025;28;20141;-77
2022/05/16 04:03:37;;;;;;;36.22;15.80;;;;;;;;;;5028636;28;20049;-77
2022/05/16 04:06:03;;;;;;;32.58;14.85;;;;;;;;;;5028879;28;20072;-77
2022/05/16 04:08:29;;;;;;;35.25;14.70;;;;;;;;;;5031182;28;20029;-78
2022/05/16 04:10:56;;;;;;;29.27;14.23;;;;;;;;;;5030128;28;20385;-77
2022/05/16 04:13:22;;;;;;;33.00;15.30;;;;;;;;;;5028722;28;20036;-77
2022/05/16 04:15:49;;;;;;;30.35;14.38;;;;;;;;;;5028334;28;20033;-77
2022/05/16 04:18:15;;;;;;;29.48;15.25;;;;;;;;;;5028526;28;20022;-77
2022/05/16 04:20:41;;;;;;;31.85;14.75;;;;;;;;;;5029933;28;20428;-77
2022/05/16 04:23:07;;;;;;;27.27;13.85;;;;;;;;;;5030715;28;20028;-77
2022/05/16 04:25:34;;;;;;;33.55;13.80;;;;;;;;;;5028717;28;20535;-77
2022/05/16 04:28:00;;;;;;;33.20;14.07;;;;;;;;;;5027940;28;20046;-77
2022/05/16 04:30:26;;;;;;;31.65;13.73;;;;;;;;;;5028811;28;20034;-77
2022/05/16 04:32:52;;;;;;;33.65;14.52;;;;;;;;;;5028404;28;20028;-77
2022/05/16 04:35:18;;;;;;;28.52;14.05;;;;;;;;;;5027799;28;20132;-77
2022/05/16 04:37:44;;;;;;;38.97;15.15;;;;;;;;;;5028651;28;20041;-78
2022/05/16 04:40:11;;;;;;;35.45;14.15;;;;;;;;;;5027792;28;20168;-77
2022/05/16 04:42:40;;;;;;;34.40;12.90;;;;;;;;;;5028645;28;20036;-77
2022/05/16 04:45:17;;;;;;;31.88;12.23;;;;;;;;;;5028433;28;20034;-77
2022/05/16 04:47:45;;;;;;;28.42;13.93;;;;;;;;;;5028868;28;20041;-78
2022/05/16 04:50:12;;;;;;;28.08;12.82;;;;;;;;;;5030891;28;20017;-77
2022/05/16 04:52:38;;;;;;;30.95;11.93;;;;;;;;;;5027994;28;20108;-77
2022/05/16 04:55:05;;;;;;;28.10;11.57;;;;;;;;;;5028111;28;20064;-76
2022/05/16 04:57:31;;;;;;;27.23;11.18;;;;;;;;;;5010331;28;20069;-76
2022/05/16 04:59:57;;;;;;;26.13;11.45;;;;;;;;;;5028141;28;20034;-77
2022/05/16 05:02:23;;;;;;;24.20;11.55;;;;;;;;;;5030798;28;20044;-77
2022/05/16 05:04:49;;;;;;;27.85;10.93;;;;;;;;;;5028225;28;20056;-74
2022/05/16 05:07:16;;;;;;;25.40;10.10;;;;;;;;;;5029806;28;20044;-76
2022/05/16 05:15:13;;;;;;;27.00;10.80;;;;;;;;;;5028494;28;20546;-77
2022/05/16 05:17:40;;;;;;;29.35;10.82;;;;;;;;;;5030031;28;20043;-77
2022/05/16 05:20:12;;;;;;;24.75;9.90;;;;;;;;;;5029712;28;20033;-77
2022/05/16 05:22:40;;;;;;;25.90;10.32;;;;;;;;;;5027809;28;20029;-77
2022/05/16 05:25:06;;;;;;;32.35;11.45;;;;;;;;;;5030211;28;20037;-78
2022/05/16 05:27:32;;;;;;;28.73;10.73;;;;;;;;;;5029522;28;20047;-77
2022/05/16 05:29:58;;;;;;;26.85;10.25;;;;;;;;;;5027022;28;20022;-77
2022/05/16 05:32:24;;;;;;;25.77;10.02;;;;;;;;;;5031022;28;20096;-77
2022/05/16 05:34:50;;;;;;;26.50;10.40;;;;;;;;;;5028442;28;20025;-77
2022/05/16 05:37:16;;;;;;;24.90;9.73;;;;;;;;;;5027578;28;20076;-77
2022/05/16 05:39:42;;;;;;;30.33;10.43;;;;;;;;;;5027877;28;20034;-77
2022/05/16 05:42:09;;;;;;;26.27;9.63;;;;;;;;;;5014474;28;20033;-78
2022/05/16 05:44:35;;;;;;;27.08;9.77;;;;;;;;;;5028943;28;20472;-77
2022/05/16 05:47:01;;;;;;;27.55;10.40;;;;;;;;;;5028982;28;20435;-77
2022/05/16 05:49:27;;;;;;;23.05;11.00;;;;;;;;;;5027454;28;20026;-71
2022/05/16 05:51:53;;;;;;;29.25;10.48;;;18.60;99.90;;;;;;5027539;28;20029;-70
2022/05/16 05:54:19;;;;;;;26.45;9.90;;;;;;;;;;5027808;28;20423;-71
2022/05/16 05:56:45;;;;;;;24.88;10.38;;;;;;;;;;5027646;28;20044;-71
2022/05/16 05:59:11;;;;;;;29.15;10.15;;;;;;;;;;5029509;28;20054;-71
2022/05/16 06:01:37;;;;;;;19.10;9.88;;;;;;;;;;5032303;28;20491;-70
2022/05/16 06:04:03;;;;;;;26.10;9.75;;;;;;;;;;5031027;28;20454;-71
2022/05/16 06:06:30;;;;;;;27.02;10.30;;;;;;;;;;5032082;28;20447;-69
2022/05/16 06:08:56;;;;;;;24.58;9.70;;;;;;;;;;5030833;28;20033;-70
2022/05/16 06:11:27;;;;;;;32.20;9.88;;;;;;;;;;5034237;28;20075;-69
2022/05/16 06:13:53;;;;;;;25.48;11.23;;;;;;;;;;5030934;28;20044;-70
2022/05/16 06:16:19;;;;;;;24.77;9.00;;;;;;;;;;5012319;28;20512;-69
2022/05/16 06:18:46;;;;;;;30.00;9.95;;;;;;;;;;5032736;28;20030;-70
2022/05/16 06:21:12;;;;;;;27.05;9.82;;;;;;;;;;5030799;28;20045;-70
2022/05/16 06:23:38;;;;;;;29.42;10.45;;;;;;;;;;5032174;28;20469;-69
2022/05/16 06:26:05;;;;;;;29.02;10.05;;;;;;;;;;5031918;28;20476;-69
2022/05/16 06:28:37;;;;;;;27.50;9.85;;;;;;;;;;5029458;28;20507;-69
2022/05/16 06:31:03;;;;;;;27.48;10.63;;;;;;;;;;5029556;28;20040;-69
2022/05/16 06:33:29;;;;;;;29.15;10.45;;;;;;;;;;5029701;28;20109;-69
2022/05/16 06:35:57;;;;;;;37.20;10.48;;;;;;;;;;5030108;28;20033;-69
2022/05/16 06:38:25;;;;;;;29.00;11.20;;;;;;;;;;5033203;28;20022;-69
2022/05/16 06:40:51;;;;;;;30.05;10.20;;;;;;;;;;5029791;28;20026;-70
2022/05/16 06:43:18;;;;;;;24.88;10.02;;;;;;;;;;5030833;28;20052;-69
2022/05/16 06:45:44;;;;;;;22.27;10.15;;;;;;;;;;5031250;28;20037;-69
2022/05/16 06:48:11;;;;;;;25.17;9.93;;;;;;;;;;5028981;28;20116;-70
2022/05/16 06:50:38;;;;;;;25.35;9.52;;;;;;;;;;5032519;28;20025;-70
2022/05/16 06:53:05;;;;;;;28.00;11.60;;;;;;;;;;5031663;28;20022;-69
2022/05/16 06:55:32;;;;;;;30.20;10.00;;;;;;;;;;5029876;28;20259;-70
2022/05/16 06:57:58;;;;;;;18.23;10.18;;;;;;;;;;5029184;28;20022;-69
2022/05/16 07:00:26;;;;;;;26.83;10.50;;;;;;;;;;5029696;28;20028;-70
2022/05/16 07:02:52;;;;;;;26.13;10.30;;;;;;;;;;5014036;28;20025;-69
2022/05/16 07:05:18;;;;;;;32.58;11.55;;;;;;;;;;5033737;28;20028;-69
2022/05/16 07:07:44;;;;;;;29.30;9.90;;;;;;;;;;5029581;28;20037;-69
2022/05/16 07:10:12;;;;;;;31.40;9.85;;;;;;;;;;5029366;28;20029;-70
2022/05/16 07:12:38;;;;;;;24.58;9.30;;;;;;;;;;5027680;28;20037;-70
2022/05/16 07:15:05;;;;;;;20.17;9.05;;;;;;;;;;5029547;28;20034;-69
2022/05/16 07:17:31;;;;;;;23.45;9.18;;;;;;;;;;5031353;28;20098;-69
2022/05/16 07:19:57;;;;;;;23.27;8.77;;;;;;;;;;5030635;28;20492;-70
2022/05/16 07:22:23;;;;;;;31.63;9.13;;;;;;;;;;5022422;28;20507;-69
2022/05/16 07:24:51;;;;;;;24.13;9.02;;;;;;;;;;5020740;28;20025;-70
2022/05/16 07:30:03;;;;;;;27.63;9.30;;;;;;;;;;5011799;28;20064;-70
2022/05/16 07:32:55;;;;;;;28.17;8.40;;;;;;;;;;5010780;28;20393;-69
2022/05/16 07:35:25;;;;;;;24.48;8.55;;;;;;;;;;5022526;28;20053;-70
2022/05/16 07:37:53;;;;;;;23.85;8.73;;;;;;;;;;5027240;28;20060;-70
2022/05/16 07:40:20;;;;;;;24.05;8.15;;;;;;;;;;5024062;28;20044;-70
2022/05/16 07:42:46;;;;;;;22.75;8.93;;;;;;;;;;5026261;28;20519;-69
2022/05/16 07:45:12;;;;;;;22.77;8.65;;;;;;;;;;5026120;28;20033;-69
2022/05/16 07:47:39;;;;;;;31.95;8.30;;;;;;;;;;5028345;28;20025;-69
2022/05/16 07:50:05;;;;;;;23.02;8.43;;;;;;;;;;5028123;28;20042;-70
2022/05/16 07:52:33;;;;;;;26.27;8.70;;;;;;;;;;5026243;28;20112;-70
2022/05/16 07:54:59;;;;;;;21.05;7.57;;;;;;;;;;5025645;28;20065;-70
2022/05/16 07:57:25;;;;;;;27.33;9.07;;;;;;;;;;5025525;28;20025;-70
2022/05/16 07:59:52;;;;;;;26.08;8.75;;;;;;;;;;5011655;28;20026;-69
2022/05/16 08:02:18;;;;;;;22.90;8.23;;;;;;;;;;5029502;28;20034;-70
2022/05/16 08:04:44;;;;;;;20.65;8.40;;;;;;;;;;5025892;28;20033;-69
2022/05/16 08:07:10;;;;;;;23.85;9.13;;;;;;;;;;5025819;28;20041;-70
2022/05/16 08:12:25;;;;;;;23.95;8.60;;;;;;;;;;5025838;28;20179;-70
2022/05/16 08:14:52;;;;;;;22.30;8.32;;;;;;;;;;5010372;28;20029;-70
2022/05/16 08:17:18;;;;;;;26.38;8.18;;;;;;;;;;5029142;28;20033;-70
2022/05/16 08:19:44;;;;;;;24.05;9.10;;;;;;;;;;5025627;28;20025;-70
2022/05/16 08:22:10;;;;;;;33.00;9.65;;;;;;;;;;5025327;28;20037;-69
2022/05/16 08:24:36;;;;;;;25.88;8.45;;;;;;;;;;5025255;28;20033;-69
2022/05/16 08:27:02;;;;;;;23.23;8.50;;;;;;;;;;5007935;28;20061;-70
2022/05/16 08:29:29;;;;;;;29.67;8.90;;;;;;;;;;5027940;28;20049;-70
2022/05/16 08:31:56;;;;;;;28.40;8.63;;;;;;;;;;5028171;28;20045;-69
2022/05/16 08:34:23;;;;;;;21.35;8.27;;;;;;;;;;5028472;28;20025;-69
2022/05/16 08:39:52;;;;;;;31.70;8.80;;;;;;;;;;5027854;28;20032;-69
2022/05/16 08:42:21;;;;;;;33.15;9.80;;;;;;;;;;5028373;28;20484;-69
2022/05/16 08:44:56;;;;;;;21.10;8.25;;;;;;;;;;5029315;28;20030;-69
2022/05/16 08:47:40;;;;;;;23.10;8.52;;;;;;;;;;5031762;28;20038;-70
2022/05/16 08:50:13;;;;;;;24.67;7.97;;;;;;;;;;5030270;28;20043;-69
2022/05/16 08:52:42;;;;;;;24.90;8.27;;;;;;;;;;5028237;28;20048;-69
2022/05/16 08:55:28;;;;;;;27.42;8.15;;;;;;;;;;5027892;28;20033;-70
2022/05/16 08:57:57;;;;;;;27.60;9.25;;;;;;;;;;5028397;28;20439;-70
2022/05/16 09:00:33;;;;;;;29.20;9.20;;;;;;;;;;5026392;28;20022;-71
2022/05/16 09:03:01;;;;;;;25.23;8.40;;;;;;;;;;5009423;28;20112;-71
2022/05/16 09:05:34;;;;;;;28.35;8.23;;;;;;;;;;5026126;28;20041;-71
2022/05/16 09:08:00;;;;;;;;;;;;;;;;;;5026430;28;20416;-71
2022/05/16 09:10:47;;;;;;;24.00;8.13;;;;;;;;;;5023287;28;19986;-71
2022/05/16 09:13:28;;;;;;;27.63;8.25;;;;;;;;;;5023080;28;20033;-71
2022/05/16 09:15:54;;;;;;;22.17;8.85;;;;;;;;;;5023306;28;20365;-71
2022/05/16 09:18:24;;;;;;;25.80;9.98;;;;;;;;;;5023237;28;20116;-71
2022/05/16 09:20:54;;;;;;;23.48;7.78;;;;;;;;;;5023598;28;20527;-71
2022/05/16 09:23:23;;;;;;;21.40;7.95;;;;;;;;;;5026957;28;20079;-71
2022/05/16 09:26:10;;;;;;;22.60;8.15;;;;;;;;;;5025941;28;20061;-71
2022/05/16 09:28:46;;;;;;;23.20;8.05;;;;;;;;;;5022792;28;20054;-71
2022/05/16 09:31:26;;;;;;;25.92;8.15;;;;;;;;;;5022627;28;20511;-71
2022/05/16 09:33:54;;;;;;;21.88;8.70;;;;;;;;;;5023021;28;20286;-71
2022/05/16 09:36:22;;;;;;;23.25;7.88;;;;;;;;;;5025476;28;20082;-71
2022/05/16 09:38:49;;;;;;;25.15;9.75;;;;;;;;;;5028502;28;20484;-70
2022/05/16 09:41:20;;;;;;;30.20;8.98;;;;;;;;;;5012525;28;20318;-71
2022/05/16 09:43:52;;;;;;;20.95;7.32;;;;;;;;;;5027149;28;20047;-70
2022/05/16 09:46:18;;;;;;;21.77;8.52;;;;;;;;;;5026782;28;20415;-71
2022/05/16 09:48:44;;;;;;;102.28;92.63;;;;;;;;;;5026554;28;20025;-71
2022/05/16 09:51:10;;;;;;;31.08;12.48;;;;;;;;;;5026690;28;20030;-71
2022/05/16 09:53:38;;;;;;;22.52;7.75;;;;;;;;;;5029271;28;20038;-71
2022/05/16 09:56:13;;;;;;;27.83;7.82;;;;;;;;;;5028123;28;20096;-71
2022/05/16 09:59:06;;;;;;;24.63;7.57;;;;;;;;;;5026046;28;20037;-71
2022/05/16 10:01:42;;;;;;;36.33;8.30;;;;;;;;;;5022415;28;20049;-70
2022/05/16 10:04:10;;;;;;;28.38;8.07;;;;;;;;;;5026184;28;20382;-71
2022/05/16 10:06:37;;;;;;;22.00;6.60;;;;;;;;;;5026269;28;20025;-71
2022/05/16 10:09:07;;;;;;;32.63;8.35;;;;;;;;;;5026080;28;20026;-70
2022/05/16 10:11:34;;;;;;;24.20;7.97;;;;;;;;;;5028570;28;20036;-71
2022/05/16 10:14:00;;;;;;;22.15;8.05;;;;;;;;;;5027417;28;20570;-71
2022/05/16 10:16:29;;;;;;;24.73;7.45;;;;;;;;;;5026574;28;20137;-70
2022/05/16 10:18:58;;;;;;;21.10;7.28;;;;;;;;;;5026614;28;20516;-71
2022/05/16 10:21:24;;;;;;;24.02;7.53;;;;;;;;;;5025889;28;20033;-71
2022/05/16 10:26:18;;;;;;;20.35;6.85;;;;;;;;;;5038736;23;20053;-71
2022/05/16 10:28:49;;;;;;;18.05;7.25;;;;;;;;;;5042859;28;20037;-70
2022/05/16 10:34:12;;;;;;;25.90;7.72;;;;;;;;;;5060464;28;20051;-70
2022/05/16 10:36:39;;;;;;;20.15;7.30;;;;;;;;;;5061964;28;20036;-70
2022/05/16 10:39:12;;;;;;;24.48;7.88;;;;;;;;;;5063448;28;20033;-70
2022/05/16 10:41:38;;;;;;;23.98;8.00;;;;;;;;;;5066215;28;20441;-70
2022/05/16 10:44:11;;;;;;;26.13;8.07;;;;;;;;;;5062925;28;20526;-71
2022/05/16 10:46:42;;;;;;;20.95;7.18;;;;;;;;;;5060675;28;20033;-70
2022/05/16 10:49:18;;;;;;;21.30;8.55;;;;;;;;;;5059795;28;20020;-70
2022/05/16 10:51:58;;;;;;;20.80;7.55;;;;;;;;;;5061407;28;20029;-70
2022/05/16 10:54:25;;;;;;;22.45;7.78;;;;;;;;;;5063598;28;20028;-70
2022/05/16 10:56:51;;;;;;;24.52;7.65;;;;;;;;;;5063067;28;20064;-70
2022/05/16 10:59:26;;;;;;;20.25;6.97;;;;;;;;;;5065410;28;20208;-70
2022/05/16 11:02:05;;;;;;;18.88;6.32;;;;;;;;;;5062602;28;20509;-71
2022/05/16 11:04:49;;;;;;;23.65;7.55;;;;;;;;;;5061755;28;20028;-70
2022/05/16 11:07:24;;;;;;;16.92;6.80;;;;;;;;;;5062353;28;20024;-70
2022/05/16 11:10:04;;;;;;;26.90;8.07;;;;;;;;;;5062150;28;20028;-70
2022/05/16 11:12:38;;;;;;;20.55;7.20;;;;;;;;;;5061980;28;20119;-70
2022/05/16 11:15:05;;;;;;;25.85;7.30;;;;;;;;;;5044230;28;20064;-70
2022/05/16 11:17:51;;;;;;;21.17;7.10;;;;;;;;;;5064571;28;20429;-70
2022/05/16 11:20:36;;;;;;;30.08;7.28;;;;;;;;;;5065033;28;20047;-70
2022/05/16 11:23:02;;;;;;;24.85;7.25;;;;;;;;;;5047904;28;20029;-70
2022/05/16 11:25:38;;;;;;;14.63;6.75;;;;;;;;;;5061773;28;20048;-70
2022/05/16 11:28:17;;;;;;;20.63;7.10;;;;;;;;;;5061983;28;20029;-70
2022/05/16 11:30:55;;;;;;;23.70;7.30;;;;;;;;;;5064095;28;20025;-70
2022/05/16 11:33:29;;;;;;;21.40;7.82;;;;;;;;;;5064526;28;20043;-69
2022/05/16 11:35:59;;;;;;;25.23;7.85;;;;;;;;;;5050791;28;20147;-69
2022/05/16 11:38:33;;;;;;;26.80;7.55;;;;;;;;;;5069569;28;20025;-69
2022/05/16 11:41:18;;;;;;;21.65;7.32;;;;;;;;;;5069623;28;20036;-69
2022/05/16 11:43:46;;;;;;;24.60;7.35;;;;;;;;;;5067892;28;20093;-69
2022/05/16 11:46:31;;;;;;;24.75;7.78;;;;;;;;;;5066097;28;20155;-69
2022/05/16 11:49:18;;;;;;;18.52;6.82;;;;;;;;;;5065399;28;20532;-69
2022/05/16 11:51:48;;;;;;;22.45;7.65;;;;;;;;;;5066191;28;20031;-69
2022/05/16 11:54:16;;;;;;;22.98;7.03;;;;;;;;;;5066027;28;20029;-69
2022/05/16 12:02:40;;;;;;;18.77;7.07;;;;;;;;;;5065473;28;20051;-69
2022/05/16 12:05:11;;;;;;;18.55;7.40;;;;;;;;;;5067509;28;20024;-69
2022/05/16 12:07:37;;;;;;;21.98;7.00;;;;;;;;;;5066046;28;20043;-69
2022/05/16 12:10:03;;;;;;;21.05;7.40;;;;;;;;;;5065631;28;20040;-69
2022/05/16 12:12:32;;;;;;;26.30;7.70;;;;;;;;;;5066066;28;20052;-69
2022/05/16 12:15:14;;;;;;;24.27;7.13;;;;;;;;;;5065564;28;20404;-69
2022/05/16 12:17:49;;;;;;;18.80;7.40;;;;;;;;;;5067733;28;20486;-69
2022/05/16 12:20:15;;;;;;;19.08;6.88;;;;;;;;;;5068859;28;20024;-69
2022/05/16 12:22:42;;;;;;;25.10;6.88;;;;;;;;;;5066859;28;20040;-69
2022/05/16 12:25:11;;;;;;;20.60;7.80;;;;;;;;;;5065463;28;20064;-69
2022/05/16 12:27:44;;;;;;;20.73;7.47;;;;;;;;;;5066057;28;20490;-69
2022/05/16 12:30:11;;;;;;;24.80;9.63;;;;;;;;;;5066187;28;20510;-69
2022/05/16 12:32:39;;;;;;;23.58;6.82;;;;;;;;;;5064349;28;20119;-71
2022/05/16 12:35:12;;;;;;;20.33;8.15;;;;;;;;;;5049071;28;20029;-71
2022/05/16 12:37:38;;;;;;;24.42;7.10;;;;;;;;;;5063866;28;20090;-71
2022/05/16 12:40:17;;;;;;;23.48;7.13;;;;;;;;;;5064461;28;20029;-69
2022/05/16 12:42:49;;;;;;;19.60;6.85;;;;;;;;;;5063883;28;20513;-69
2022/05/16 12:45:41;;;;;;;21.30;7.22;;;;;;;;;;5063973;28;20491;-69
2022/05/16 12:48:08;;;;;;;16.63;6.53;;;;;;;;;;5049793;28;20051;-71
2022/05/16 12:50:37;;;;;;;21.73;6.90;;;;;;;;;;5065857;28;20090;-70
2022/05/16 12:53:12;;;;;;;20.85;7.63;;;;;;;;;;5065104;28;20034;-70
2022/05/16 12:55:41;;;;;;;20.50;7.50;;;;;;;;;;5063852;28;20505;-72
2022/05/16 12:58:08;;;;;;;24.42;8.00;;;;;;;;;;5064559;28;20039;-72
2022/05/16 13:00:41;;;;;;;25.58;7.00;;;;;;;;;;5040635;28;20452;-71
2022/05/16 13:03:13;;;;;;;22.75;7.03;;;;;;;;;;5063568;28;20128;-70
2022/05/16 13:05:47;;;;;;;21.17;6.68;;;;;;;;;;5064713;28;20501;-69
2022/05/16 13:08:32;;;;;;;18.90;6.78;;;;;;;;;;5065534;28;20023;-69
2022/05/16 13:11:08;;;;;;;21.67;6.18;;;;;;;;;;5050053;28;20036;-70
2022/05/16 13:13:41;;;;;;;21.52;7.75;;;;;;;;;;5067533;28;20025;-71
2022/05/16 13:16:26;;;;;;;19.90;6.95;;;;;;;;;;5044951;28;20135;-69
2022/05/16 13:18:58;;;;;;;18.92;6.22;;;;;;;;;;5067437;28;20031;-70
2022/05/16 13:21:33;;;;;;;24.13;6.70;;;;;;;;;;5067616;28;20031;-70
2022/05/16 13:23:59;;;;;;;18.85;6.68;;;;;;;;;;5052257;28;20017;-70
2022/05/16 13:29:23;;;;;;;20.48;6.65;;;;;;;;;;5070152;28;20054;-70
2022/05/16 13:31:52;;;;;;;16.88;6.22;;;;;;;;;;5067241;28;20064;-71
2022/05/16 13:34:29;;;;;;;26.98;6.88;;;;;;;;;;5067542;28;20029;-71
2022/05/16 13:36:56;;;;;;;20.85;6.35;;;;;;;;;;5067040;28;20115;-70
2022/05/16 13:39:22;;;;;;;22.48;6.07;;;;;;;;;;5067985;28;20025;-71
2022/05/16 13:41:59;;;;;;;21.60;6.93;;;;;;;;;;5068327;28;20025;-72
2022/05/16 13:44:25;;;;;;;19.83;4.97;;;;;;;;;;5060839;23;20061;-72
2022/05/16 13:46:53;;;;;;;16.08;5.80;;;;;;;;;;5048666;28;20124;-72
2022/05/16 13:49:20;;;;;;;18.63;6.55;;;;;;;;;;5046604;28;20035;-72
2022/05/16 13:51:51;;;;;;;24.95;6.78;;;;;;;;;;5047442;28;20100;-73
2022/05/16 13:54:23;;;;;;;17.73;5.57;;;;;;;;;;5046852;28;20399;-73
2022/05/16 13:56:50;;;;;;;18.27;5.95;;;;;;;;;;5047787;28;20503;-72
2022/05/16 13:59:30;;;;;;;19.55;5.93;;;;;;;;;;5053042;28;20484;-72
2022/05/16 14:02:09;;;;;;;20.50;6.80;;;;;;;;;;5047756;28;20526;-73
2022/05/16 14:04:45;;;;;;;18.92;5.95;;;;;;;;;;5045276;28;20109;-73
2022/05/16 14:07:14;;;;;;;18.13;5.45;;;;;;;;;;5048605;28;20056;-73
2022/05/16 14:09:59;;;;;;;19.83;5.45;;;;;;;;;;5045815;28;20091;-73
2022/05/16 14:12:37;;;;;;;18.63;6.07;;;;;;;;;;5046096;28;20025;-73
2022/05/16 14:15:05;;;;;;;17.58;5.45;;;;;;;;;;5036044;28;20033;-73
2022/05/16 14:17:36;;;;;;;21.73;6.15;;;;;;;;;;5049388;28;20078;-73
2022/05/16 14:20:07;;;;;;;20.58;6.22;;;;;;;;;;5049834;28;20059;-72
2022/05/16 14:22:37;;;;;;;22.35;6.32;;;;;;;;;;5045527;28;20044;-72
2022/05/16 14:25:05;;;;;;;20.65;7.30;;;;;;;;;;5045395;28;20055;-72
2022/05/16 14:27:37;;;;;;;19.90;6.10;;;;;;;;;;5045342;28;20025;-72
2022/05/16 14:30:12;;;;;;;19.65;5.38;;;;;;;;;;5045805;28;20030;-72
2022/05/16 14:32:43;;;;;;;18.60;5.90;;;;;;;;;;5048263;28;20491;-73
2022/05/16 14:35:10;;;;;;;14.23;5.55;;;;;;;;;;5046893;28;20025;-73
2022/05/16 14:37:37;;;;;;;15.23;6.35;;;;;;;;;;5046255;28;20037;-73
2022/05/16 14:40:03;;;;;;;22.30;5.50;;;;;;;;;;5028549;22;20115;-69
2022/05/16 14:42:34;;;;;;;16.20;5.65;;;;;;;;;;5025139;28;20022;-69
2022/05/16 14:45:12;;;;;;;17.75;5.25;;;;;;;;;;5020084;28;20022;-70
2022/05/16 14:47:42;;;;;;;19.13;5.38;;;;;;;;;;5023004;28;20026;-70
2022/05/16 14:50:13;;;;;;;22.13;5.95;;;;;;;;;;5024632;28;20418;-68
2022/05/16 14:52:41;;;;;;;17.77;5.85;;;;;;;;;;5021659;28;20022;-69
2022/05/16 14:55:12;;;;;;;16.08;6.53;;;;;;;;;;5021475;28;20400;-70
2022/05/16 14:57:42;;;;;;;15.05;5.65;;;;;;;;;;5025096;28;20036;-69
2022/05/16 15:04:02;;;;;;;17.13;5.07;;;;;;;;;;5019367;28;20029;-70
2022/05/16 15:05:41;;;;;;;21.77;6.50;;;;;;;;;;5016150;28;20072;-70
2022/05/16 15:08:07;;;;;;;17.50;5.60;;;;;;;;;;5023887;28;20521;-70
2022/05/16 15:10:34;;;;;;;17.75;5.85;;;;;;;;;;5019296;28;20025;-71
2022/05/16 15:13:00;;;;;;;17.75;5.82;;;;;;;;;;5011877;28;20021;-71
2022/05/16 15:15:26;;;;;;;20.95;6.55;;;;;;;;;;5021610;28;20037;-70